Terminal Aerodrome Forecast
Issued by NWS

Current Version | Previous Version | Graphics & Text | Print | Product List | Glossary On
Versions: 1 2 3 4 5 6 7 8 9 10 11 12 13 14 15 16 17 18 19 20 21 22 23 24 25 26 27 28 29 30 31 32 33 34 35 36 37
000
FTUS41 KRNK 280540
TAFLWB
TAF
KLWB 280540Z 2806/2906 00000KT P6SM SCT022 SCT035
     FM280900 27006KT P6SM VCSH OVC020
     FM281400 30010G18KT P6SM BKN030
     FM282200 30008KT P6SM VCSH BKN025=

USA.gov is the U.S. government's official web portal to all federal, state and local government web resources and services.